KEVV/EVV METAR and TAF weather

Enter ICAO airport designator
Station Type Date Time Source
KEVV METAR 2022/01/23 11:54 UTC NOAA

KEVV 231154Z 21007KT 10SM OVC095 M02/M06 A3002 RMK AO2 SLP171 T10171061 11017 21050 56024 $


Station Type Date Time Source
KEVV Decoded METAR 2022/01/23 11:54 UTC NOAA

EVANSVILLE REGIONAL, IN, United States (KEVV) 38-02N 087-32W 117M
Jan 23, 2022 - 06:54 AM EST / 2022.01.23 1154 UTC
Wind: from the SSW (210 degrees) at 8 MPH (7 KT):0
Visibility: 10 mile(s):0
Sky conditions: overcast
Temperature: 28.9 F (-1.7 C)
Windchill: 21 F (-6 C):1
Dew Point: 21.0 F (-6.1 C)
Relative Humidity: 71%
Pressure (altimeter): 30.02 in. Hg (1016 hPa)
Pressure tendency: 0.07 inches (2.4 hPa) lower than three hours ago
ob: KEVV 231154Z 21007KT 10SM OVC095 M02/M06 A3002 RMK AO2 SLP171 T10171061 11017 21050 56024
cycle: 12

Station Type Date Time Source
KEVV TAF 2022/01/23 12:34 UTC NOAA

TAF KEVV 231132Z 2312/2412 21008KT P6SM VCSH BKN100
FM231400 22010G18KT P6SM VCSH BKN080
FM231700 29013G22KT P6SM BKN035
FM232200 VRB03KT P6SM SCT200

Example: see airport list